createdAt,value
2018-11-25T00:00:20.150Z,26.20
2018-11-25T00:02:49.009Z,25.53
2018-11-25T00:05:17.928Z,28.50
2018-11-25T00:07:53.145Z,24.57
2018-11-25T00:10:22.026Z,26.97
2018-11-25T00:12:51.261Z,23.30
2018-11-25T00:15:21.526Z,26.30
2018-11-25T00:17:50.371Z,26.17
2018-11-25T00:20:19.258Z,25.67
2018-11-25T00:22:48.069Z,27.00
2018-11-25T00:25:16.955Z,26.20
2018-11-25T00:27:45.791Z,23.83
2018-11-25T00:30:16.212Z,24.20
2018-11-25T00:32:45.225Z,25.80
2018-11-25T00:35:16.097Z,25.73
2018-11-25T00:37:48.260Z,24.07
2018-11-25T00:40:15.694Z,25.70
2018-11-25T00:42:45.039Z,25.50
2018-11-25T00:45:15.784Z,24.87
2018-11-25T00:47:44.642Z,24.27
2018-11-25T00:50:14.330Z,25.10
2018-11-25T00:52:43.165Z,24.47
2018-11-25T00:55:14.088Z,24.13
2018-11-25T00:57:42.958Z,21.93
2018-11-25T01:00:19.225Z,22.03
2018-11-25T01:02:49.084Z,22.50
2018-11-25T01:05:17.971Z,23.77
2018-11-25T01:07:46.803Z,25.87
2018-11-25T01:10:16.698Z,24.77
2018-11-25T01:12:45.825Z,23.00
2018-11-25T01:15:18.030Z,24.53
2018-11-25T01:17:46.975Z,26.30
2018-11-25T01:20:17.137Z,23.13
2018-11-25T01:22:45.973Z,23.67
2018-11-25T01:25:14.901Z,25.60
2018-11-25T01:27:44.138Z,23.70
2018-11-25T01:30:15.634Z,23.23
2018-11-25T01:32:44.498Z,24.90
2018-11-25T01:35:13.990Z,23.17
2018-11-25T01:37:42.913Z,23.17
2018-11-25T01:40:13.729Z,22.27
2018-11-25T01:42:42.573Z,22.77
2018-11-25T01:45:15.317Z,23.30
2018-11-25T01:47:44.198Z,20.77
2018-11-25T01:50:15.376Z,19.07
2018-11-25T01:52:44.189Z,20.37
2018-11-25T01:55:14.047Z,18.73
2018-11-25T01:57:43.241Z,19.93
2018-11-25T02:00:18.822Z,19.57
2018-11-25T02:02:47.693Z,19.57
2018-11-25T02:05:16.657Z,22.63
2018-11-25T02:07:45.516Z,22.23
2018-11-25T02:10:16.354Z,22.27
2018-11-25T02:12:45.262Z,23.40
2018-11-25T02:15:15.158Z,21.47
2018-11-25T02:17:44.090Z,23.13
2018-11-25T02:20:20.636Z,23.43
2018-11-25T02:22:49.653Z,22.30
2018-11-25T02:25:18.477Z,21.33
2018-11-25T02:27:47.386Z,23.87
2018-11-25T02:30:17.273Z,24.87
2018-11-25T02:32:46.567Z,22.83
2018-11-25T02:35:16.114Z,25.90
2018-11-25T02:37:45.765Z,23.17
2018-11-25T02:40:15.364Z,23.83
2018-11-25T02:42:44.625Z,25.67
2018-11-25T02:45:17.236Z,21.73
2018-11-25T02:47:46.137Z,23.43
2018-11-25T02:50:25.378Z,22.90
2018-11-25T02:52:54.917Z,25.27
2018-11-25T02:55:24.662Z,25.63
2018-11-25T02:57:54.118Z,26.33
2018-11-25T03:00:23.519Z,23.80
2018-11-25T03:02:52.401Z,24.57
2018-11-25T03:05:21.302Z,22.90
2018-11-25T03:07:50.193Z,24.40
2018-11-25T03:10:19.026Z,23.33
2018-11-25T03:12:47.880Z,24.63
2018-11-25T03:15:18.326Z,25.67
2018-11-25T03:17:47.193Z,24.30
2018-11-25T03:20:16.826Z,25.33
2018-11-25T03:22:45.751Z,24.33
2018-11-25T03:25:16.518Z,26.00
2018-11-25T03:27:45.502Z,25.73
2018-11-25T03:30:17.486Z,26.37
2018-11-25T03:32:47.070Z,26.47
2018-11-25T03:35:15.915Z,25.30
2018-11-25T03:37:44.762Z,26.37
2018-11-25T03:40:14.439Z,25.80
2018-11-25T03:42:43.298Z,25.60
2018-11-25T03:45:14.002Z,25.07
2018-11-25T03:47:42.858Z,26.00
2018-11-25T03:50:12.527Z,27.13
2018-11-25T03:52:41.753Z,24.40
2018-11-25T03:55:18.021Z,31.60
2018-11-25T03:57:46.910Z,30.67
2018-11-25T04:00:18.514Z,38.33
2018-11-25T04:02:47.369Z,32.30
2018-11-25T04:05:16.853Z,54.97
2018-11-25T04:07:45.700Z,49.80
2018-11-25T04:10:16.306Z,133.00
2018-11-25T04:12:46.512Z,47.47
2018-11-25T04:15:18.192Z,111.47
2018-11-25T04:17:47.362Z,87.27
2018-11-25T04:20:19.982Z,41.17
2018-11-25T04:22:49.173Z,110.07
2018-11-25T04:25:18.077Z,53.10
2018-11-25T04:27:46.983Z,95.13
2018-11-25T04:30:18.354Z,51.60
2018-11-25T04:32:48.184Z,77.40
2018-11-25T04:35:16.998Z,47.03
2018-11-25T04:37:45.837Z,62.57
2018-11-25T04:40:15.342Z,74.10
2018-11-25T04:42:44.216Z,93.50
2018-11-25T04:45:14.030Z,72.83
2018-11-25T04:47:42.934Z,70.73
2018-11-25T04:50:19.111Z,140.47
2018-11-25T04:52:48.124Z,31.63
2018-11-25T04:55:17.482Z,92.00
2018-11-25T04:57:52.106Z,73.30
2018-11-25T05:00:21.070Z,84.53
2018-11-25T05:02:50.691Z,47.10
2018-11-25T05:05:19.966Z,122.10
2018-11-25T05:07:48.828Z,62.67
2018-11-25T05:10:18.309Z,92.50
2018-11-25T05:12:47.201Z,136.00
2018-11-25T05:15:18.057Z,56.93
2018-11-25T05:17:46.909Z,96.17
2018-11-25T05:20:16.282Z,66.00
2018-11-25T05:22:45.134Z,125.80
2018-11-25T05:25:17.262Z,147.90
2018-11-25T05:27:46.120Z,99.73
2018-11-25T05:30:20.746Z,99.63
2018-11-25T05:32:49.914Z,65.07
2018-11-25T05:35:19.576Z,75.50
2018-11-25T05:37:48.454Z,138.33
2018-11-25T05:40:17.490Z,59.50
2018-11-25T05:42:46.398Z,82.00
2018-11-25T05:45:16.459Z,99.90
2018-11-25T05:47:45.320Z,96.53
2018-11-25T05:50:18.316Z,159.37
2018-11-25T05:52:47.230Z,107.37
2018-11-25T05:55:16.101Z,77.73
2018-11-25T05:57:44.970Z,123.53
2018-11-25T06:00:16.746Z,120.87
2018-11-25T06:02:45.611Z,82.70
2018-11-25T06:05:14.473Z,101.40
2018-11-25T06:07:43.285Z,144.50
2018-11-25T06:10:13.047Z,70.87
2018-11-25T06:12:42.023Z,121.37
2018-11-25T06:15:11.977Z,45.63
2018-11-25T06:17:40.833Z,137.17
2018-11-25T06:20:15.253Z,91.20
2018-11-25T06:22:44.222Z,33.37
2018-11-25T06:25:14.976Z,70.47
2018-11-25T06:27:43.813Z,83.90
2018-11-25T06:30:17.519Z,95.23
2018-11-25T06:32:46.339Z,47.43
2018-11-25T06:35:16.024Z,122.50
2018-11-25T06:37:44.887Z,77.13
2018-11-25T06:40:19.293Z,120.93
2018-11-25T06:42:48.520Z,92.57
2018-11-25T06:45:19.617Z,62.23
2018-11-25T06:47:48.462Z,67.77
2018-11-25T06:50:17.321Z,92.60
2018-11-25T06:52:46.162Z,99.53
2018-11-25T06:55:15.030Z,103.10
2018-11-25T06:57:43.862Z,91.87
2018-11-25T07:00:27.364Z,145.33
2018-11-25T07:02:56.219Z,81.03
2018-11-25T07:05:25.090Z,154.27
2018-11-25T07:07:53.938Z,141.73
2018-11-25T07:10:23.277Z,81.23
2018-11-25T07:12:53.094Z,65.67
2018-11-25T07:15:21.980Z,86.40
2018-11-25T07:17:50.806Z,130.80
2018-11-25T07:20:20.301Z,72.70
2018-11-25T07:22:49.123Z,71.53
2018-11-25T07:25:19.855Z,59.80
2018-11-25T07:27:48.671Z,58.63
2018-11-25T07:30:19.589Z,36.53
2018-11-25T07:32:48.425Z,100.10
2018-11-25T07:35:17.317Z,74.43
2018-11-25T07:37:46.134Z,64.53
2018-11-25T07:40:22.876Z,53.83
2018-11-25T07:42:51.725Z,45.50
2018-11-25T07:45:29.503Z,79.60
2018-11-25T07:47:50.507Z,61.70
2018-11-25T07:50:19.367Z,67.03
2018-11-25T07:52:49.062Z,60.60
2018-11-25T07:55:18.997Z,76.70
2018-11-25T07:57:48.234Z,31.67
2018-11-25T08:00:19.065Z,34.80
2018-11-25T08:02:47.905Z,31.13
2018-11-25T08:05:19.679Z,46.23
2018-11-25T08:07:50.533Z,30.63
2018-11-25T08:10:19.412Z,46.03
2018-11-25T08:12:48.452Z,43.60
2018-11-25T08:15:18.101Z,43.03
2018-11-25T08:17:46.983Z,50.07
2018-11-25T08:20:17.690Z,30.90
2018-11-25T08:22:46.589Z,83.30
2018-11-25T08:25:17.165Z,39.43
2018-11-25T08:27:46.061Z,63.30
2018-11-25T08:30:16.921Z,44.60
2018-11-25T08:32:45.802Z,49.87
2018-11-25T08:35:16.038Z,45.23
2018-11-25T08:37:45.146Z,107.53
2018-11-25T08:40:14.997Z,32.50
2018-11-25T08:42:44.105Z,35.90
2018-11-25T08:45:13.767Z,55.53
2018-11-25T08:47:43.040Z,63.90
2018-11-25T08:50:13.909Z,30.57
2018-11-25T08:52:43.760Z,56.27
2018-11-25T08:55:17.143Z,40.63
2018-11-25T08:57:46.045Z,38.50
2018-11-25T09:00:29.945Z,41.53
2018-11-25T09:02:58.782Z,29.33
2018-11-25T09:05:27.644Z,35.17
2018-11-25T09:07:57.252Z,31.50
2018-11-25T09:10:26.171Z,45.83
2018-11-25T09:12:57.092Z,53.37
2018-11-25T09:15:29.134Z,42.90
2018-11-25T09:17:58.014Z,50.77
2018-11-25T09:20:26.921Z,40.33
2018-11-25T09:22:55.822Z,47.83
2018-11-25T09:25:28.517Z,69.67
2018-11-25T09:27:57.970Z,38.83
2018-11-25T09:30:27.646Z,34.03
2018-11-25T09:32:56.528Z,51.73
2018-11-25T09:35:25.913Z,43.47
2018-11-25T09:37:54.790Z,43.53
2018-11-25T09:40:24.650Z,47.53
2018-11-25T09:42:53.514Z,66.17
2018-11-25T09:45:22.386Z,41.43
2018-11-25T09:47:51.634Z,67.30
2018-11-25T09:50:21.393Z,29.17
2018-11-25T09:52:50.264Z,41.13
2018-11-25T09:55:19.965Z,37.20
2018-11-25T09:57:54.778Z,40.80
2018-11-25T10:00:33.114Z,35.63
2018-11-25T10:03:02.355Z,30.00
2018-11-25T10:05:31.214Z,32.13
2018-11-25T10:08:00.109Z,33.37
2018-11-25T10:10:28.955Z,34.87
2018-11-25T10:12:57.799Z,31.63
2018-11-25T10:15:27.614Z,34.60
2018-11-25T10:17:59.688Z,36.03
2018-11-25T10:20:27.283Z,33.83
2018-11-25T10:22:56.157Z,38.00
2018-11-25T10:25:25.248Z,35.07
2018-11-25T10:27:54.238Z,39.53
2018-11-25T10:30:28.033Z,44.57
2018-11-25T10:33:04.987Z,38.80
2018-11-25T10:35:33.810Z,43.20
2018-11-25T10:38:02.667Z,42.93
2018-11-25T10:40:31.509Z,40.43
2018-11-25T10:43:00.356Z,43.43
2018-11-25T10:45:29.327Z,38.33
2018-11-25T10:47:58.691Z,43.97
2018-11-25T10:50:27.593Z,44.30
2018-11-25T10:52:57.573Z,40.03
2018-11-25T10:55:26.409Z,37.20
2018-11-25T10:57:55.269Z,39.07
2018-11-25T11:00:37.064Z,39.33
2018-11-25T11:03:13.282Z,38.73
2018-11-25T11:05:48.755Z,39.63
2018-11-25T11:08:17.707Z,36.23
2018-11-25T11:10:46.551Z,40.00
2018-11-25T11:13:15.423Z,38.33
2018-11-25T11:15:44.245Z,42.80
2018-11-25T11:18:13.685Z,37.80
2018-11-25T11:20:42.554Z,40.30
2018-11-25T11:23:11.429Z,34.27
2018-11-25T11:25:40.265Z,35.50
2018-11-25T11:28:09.134Z,30.47
2018-11-25T11:30:37.978Z,32.63
2018-11-25T11:33:07.027Z,30.93
2018-11-25T11:35:35.859Z,30.17
2018-11-25T11:38:04.757Z,31.17
2018-11-25T11:40:33.594Z,30.77
2018-11-25T11:43:02.499Z,30.73
2018-11-25T11:45:31.317Z,31.17
2018-11-25T11:48:00.157Z,32.53
2018-11-25T11:50:28.985Z,34.40
2018-11-25T11:52:57.834Z,30.77
2018-11-25T11:55:26.666Z,53.97
2018-11-25T11:57:55.545Z,43.47
2018-11-25T12:00:25.727Z,35.37
2018-11-25T12:02:54.593Z,34.10
2018-11-25T12:05:23.439Z,30.03
2018-11-25T12:07:52.309Z,26.90
2018-11-25T12:10:21.166Z,30.37
2018-11-25T12:12:49.981Z,29.10
2018-11-25T12:15:20.198Z,27.93
2018-11-25T12:17:49.015Z,26.93
2018-11-25T12:20:21.172Z,39.87
2018-11-25T12:22:47.223Z,23.77
2018-11-25T12:25:16.897Z,23.57
2018-11-25T12:27:45.758Z,25.30
2018-11-25T12:30:15.554Z,24.60
2018-11-25T12:32:45.712Z,24.10
2018-11-25T12:35:15.449Z,23.47
2018-11-25T12:37:44.411Z,24.73
2018-11-25T12:40:17.594Z,23.80
2018-11-25T12:42:47.793Z,24.60
2018-11-25T12:45:17.355Z,20.60
2018-11-25T12:47:46.181Z,19.30
2018-11-25T12:50:16.099Z,20.20
2018-11-25T12:52:45.055Z,17.73
2018-11-25T12:55:16.858Z,17.63
2018-11-25T12:57:45.691Z,18.13
2018-11-25T13:00:19.954Z,16.87
2018-11-25T13:02:48.950Z,17.70
2018-11-25T13:05:17.822Z,15.40
2018-11-25T13:07:46.653Z,23.77
2018-11-25T13:10:15.578Z,16.77
2018-11-25T13:12:44.410Z,22.87
2018-11-25T13:15:13.662Z,18.17
2018-11-25T13:17:42.514Z,16.13
2018-11-25T13:20:12.381Z,13.83
2018-11-25T13:22:41.414Z,13.93
2018-11-25T13:25:11.950Z,13.97
2018-11-25T13:27:40.787Z,15.77
2018-11-25T13:30:17.691Z,15.37
2018-11-25T13:32:46.762Z,14.13
2018-11-25T13:35:15.647Z,19.47
2018-11-25T13:37:44.489Z,14.03
2018-11-25T13:40:14.450Z,14.30
2018-11-25T13:42:43.294Z,13.30
2018-11-25T13:45:12.518Z,13.17
2018-11-25T13:47:41.357Z,38.40
2018-11-25T13:50:11.159Z,91.30
2018-11-25T13:52:40.087Z,39.03
2018-11-25T13:55:17.679Z,89.67
2018-11-25T13:57:46.530Z,21.67
2018-11-25T14:01:18.697Z,43.40
2018-11-25T14:03:47.530Z,19.77
2018-11-25T14:06:16.383Z,13.90
2018-11-25T14:08:48.518Z,14.47
2018-11-25T14:11:17.366Z,14.83
2018-11-25T14:13:46.208Z,11.07
2018-11-25T14:16:17.645Z,17.13
2018-11-25T14:18:46.531Z,15.67
2018-11-25T14:21:15.809Z,13.80
2018-11-25T14:23:46.578Z,14.07
2018-11-25T14:26:26.270Z,11.40
2018-11-25T14:28:55.162Z,12.17
2018-11-25T14:31:24.050Z,12.43
2018-11-25T14:33:52.874Z,13.07
2018-11-25T14:36:21.726Z,13.50
2018-11-25T14:38:50.548Z,10.70
2018-11-25T14:41:20.246Z,13.40
2018-11-25T14:43:49.111Z,19.07
2018-11-25T14:46:19.990Z,19.73
2018-11-25T14:48:48.829Z,17.07
2018-11-25T14:51:17.694Z,13.40
2018-11-25T14:53:46.522Z,11.63
2018-11-25T14:56:15.382Z,11.63
2018-11-25T14:58:44.201Z,13.13
2018-11-25T15:01:13.117Z,12.67
2018-11-25T15:03:41.947Z,10.93
2018-11-25T15:06:10.802Z,14.50
2018-11-25T15:08:39.625Z,14.83
2018-11-25T15:11:09.337Z,14.07
2018-11-25T15:13:38.178Z,14.10
2018-11-25T15:16:09.437Z,12.83
2018-11-25T15:18:38.326Z,14.20
2018-11-25T15:21:08.234Z,13.20
2018-11-25T15:23:37.135Z,14.30
2018-11-25T15:26:06.869Z,13.33
2018-11-25T15:28:35.733Z,18.20
2018-11-25T15:31:04.966Z,16.97
2018-11-25T15:33:33.839Z,16.80
2018-11-25T15:36:02.666Z,17.70
2018-11-25T15:38:31.537Z,15.97
2018-11-25T15:41:00.358Z,14.13
2018-11-25T15:43:29.206Z,14.43
2018-11-25T15:45:58.034Z,14.90
2018-11-25T15:48:28.464Z,16.70
2018-11-25T15:50:57.314Z,15.43
2018-11-25T15:53:26.185Z,14.73
2018-11-25T15:55:58.669Z,15.50
2018-11-25T15:58:27.518Z,17.93
2018-11-25T16:00:56.368Z,15.73
2018-11-25T16:03:25.226Z,16.77
2018-11-25T16:05:58.434Z,15.30
2018-11-25T16:08:27.359Z,15.83
2018-11-25T16:10:56.179Z,15.23
2018-11-25T16:13:25.051Z,16.07
2018-11-25T16:15:53.918Z,16.23
2018-11-25T16:18:22.790Z,16.50
2018-11-25T16:20:53.360Z,17.70
2018-11-25T16:23:22.226Z,17.13
2018-11-25T16:25:53.906Z,17.43
2018-11-25T16:28:32.430Z,14.90
2018-11-25T16:31:01.309Z,14.60
2018-11-25T16:33:30.339Z,14.20
2018-11-25T16:35:59.483Z,15.33
2018-11-25T16:38:30.354Z,15.87
2018-11-25T16:40:59.753Z,20.90
2018-11-25T16:43:28.975Z,18.70
2018-11-25T16:45:58.217Z,25.50
2018-11-25T16:48:27.405Z,22.93
2018-11-25T16:50:56.726Z,30.30
2018-11-25T16:53:26.550Z,31.07
2018-11-25T16:55:56.807Z,22.13
2018-11-25T16:58:26.580Z,22.90
2018-11-25T17:00:55.819Z,24.37
2018-11-25T17:03:25.024Z,18.10
2018-11-25T17:05:54.699Z,16.17
2018-11-25T17:08:39.981Z,16.70
2018-11-25T17:11:09.402Z,17.40
2018-11-25T17:13:38.771Z,15.73
2018-11-25T17:16:08.834Z,17.90
2018-11-25T17:18:38.497Z,16.63
2018-11-25T17:21:07.715Z,15.50
2018-11-25T17:23:37.030Z,15.47
2018-11-25T17:26:06.226Z,14.50
2018-11-25T17:28:35.395Z,15.27
2018-11-25T17:31:04.625Z,16.77
2018-11-25T17:33:33.800Z,14.67
2018-11-25T17:36:02.850Z,15.77
2018-11-25T17:38:31.988Z,14.97
2018-11-25T17:41:01.148Z,13.43
2018-11-25T17:43:30.266Z,16.13
2018-11-25T17:45:59.384Z,12.50
2018-11-25T17:48:28.514Z,13.60
2018-11-25T17:50:57.648Z,13.73
2018-11-25T17:53:26.873Z,11.67
2018-11-25T17:55:56.061Z,10.70
2018-11-25T17:58:25.183Z,11.20
2018-11-25T18:01:11.063Z,19.07
2018-11-25T18:03:40.475Z,10.63
2018-11-25T18:06:09.524Z,10.37
2018-11-25T18:08:38.932Z,11.00
2018-11-25T18:11:08.431Z,12.87
2018-11-25T18:13:39.508Z,10.27
2018-11-25T18:16:11.183Z,8.93
2018-11-25T18:18:43.233Z,11.07
2018-11-25T18:21:15.276Z,12.40
2018-11-25T18:23:44.392Z,14.77
2018-11-25T18:26:13.837Z,9.17
2018-11-25T18:28:43.028Z,9.00
2018-11-25T18:31:12.632Z,17.83
2018-11-25T18:33:41.814Z,11.57
2018-11-25T18:36:12.620Z,8.60
2018-11-25T18:38:41.746Z,10.37
2018-11-25T18:41:11.931Z,9.83
2018-11-25T18:43:41.036Z,8.83
2018-11-25T18:46:10.271Z,9.60
2018-11-25T18:48:41.998Z,9.53
2018-11-25T18:51:11.081Z,11.90
2018-11-25T18:53:40.206Z,16.27
2018-11-25T18:56:09.304Z,14.43
2018-11-25T18:58:38.717Z,17.63
2018-11-25T19:01:15.690Z,13.43
2018-11-25T19:03:44.888Z,11.07
2018-11-25T19:06:13.959Z,13.17
2018-11-25T19:08:43.071Z,9.97
2018-11-25T19:11:12.208Z,13.50
2018-11-25T19:13:41.424Z,12.50
2018-11-25T19:16:10.558Z,10.87
2018-11-25T19:18:39.655Z,36.07
2018-11-25T19:21:08.798Z,10.93
2018-11-25T19:23:38.955Z,12.90
2018-11-25T19:26:09.145Z,22.53
2018-11-25T19:28:42.756Z,17.83
2018-11-25T19:31:11.972Z,14.27
2018-11-25T19:33:41.096Z,25.20
2018-11-25T19:36:10.272Z,32.23
2018-11-25T19:38:39.443Z,12.17
2018-11-25T19:41:10.860Z,20.73
2018-11-25T19:43:40.250Z,18.33
2018-11-25T19:46:09.672Z,11.00
2018-11-25T19:48:38.862Z,12.90
2018-11-25T19:51:08.134Z,11.20
2018-11-25T19:53:37.428Z,11.17
2018-11-25T19:56:06.627Z,10.37
2018-11-25T19:58:35.735Z,10.57
2018-11-25T20:01:05.175Z,11.40
2018-11-25T20:03:34.241Z,10.03
2018-11-25T20:06:03.375Z,11.27
2018-11-25T20:08:32.730Z,10.30
2018-11-25T20:11:01.995Z,11.53
2018-11-25T20:13:31.086Z,12.30
2018-11-25T20:16:05.252Z,10.80
2018-11-25T20:18:35.139Z,9.60
2018-11-25T20:21:09.287Z,10.03
2018-11-25T20:23:38.575Z,10.77
2018-11-25T20:26:07.726Z,10.20
2018-11-25T20:28:36.996Z,9.87
2018-11-25T20:31:06.813Z,9.57
2018-11-25T20:33:40.945Z,9.10
2018-11-25T20:36:10.975Z,7.87
2018-11-25T20:38:45.211Z,8.93
2018-11-25T20:41:15.577Z,9.37
2018-11-25T20:43:43.585Z,7.57
2018-11-25T20:46:18.020Z,8.20
2018-11-25T20:48:48.404Z,9.30
2018-11-25T20:51:17.937Z,8.73
2018-11-25T20:53:52.077Z,8.53
2018-11-25T20:56:21.243Z,7.90
2018-11-25T20:58:50.327Z,8.83
2018-11-25T21:01:19.437Z,8.33
2018-11-25T21:03:48.487Z,9.00
2018-11-25T21:06:17.881Z,8.17
2018-11-25T21:08:47.946Z,9.23
2018-11-25T21:11:22.628Z,7.83
2018-11-25T21:13:51.755Z,9.73
2018-11-25T21:16:20.843Z,7.03
2018-11-25T21:18:49.980Z,8.07
2018-11-25T21:21:19.102Z,7.47
2018-11-25T21:23:48.186Z,7.27
2018-11-25T21:26:17.294Z,6.93
2018-11-25T21:28:46.392Z,6.73
2018-11-25T21:31:15.560Z,7.20
2018-11-25T21:33:44.606Z,7.73
2018-11-25T21:36:13.739Z,6.90
2018-11-25T21:38:42.845Z,7.30
2018-11-25T21:41:12.694Z,6.60
2018-11-25T21:43:41.767Z,6.53
2018-11-25T21:46:11.104Z,7.87
2018-11-25T21:48:40.196Z,7.97
2018-11-25T21:51:09.250Z,6.83
2018-11-25T21:53:38.395Z,8.67
2018-11-25T21:56:07.810Z,7.27
2018-11-25T21:58:36.939Z,7.37
2018-11-25T22:01:06.968Z,6.97
2018-11-25T22:03:36.392Z,7.17
2018-11-25T22:06:05.764Z,7.27
2018-11-25T22:08:34.907Z,7.27
2018-11-25T22:11:04.043Z,7.30
2018-11-25T22:13:33.177Z,7.60
2018-11-25T22:16:02.304Z,8.70
2018-11-25T22:18:31.443Z,6.90
2018-11-25T22:21:00.558Z,6.47
2018-11-25T22:23:29.406Z,6.73
2018-11-25T22:25:58.227Z,7.33
2018-11-25T22:28:27.066Z,7.77
2018-11-25T22:30:55.903Z,7.20
2018-11-25T22:33:24.758Z,8.37
2018-11-25T22:35:53.587Z,8.97
2018-11-25T22:38:22.425Z,8.23
2018-11-25T22:40:51.244Z,9.93
2018-11-25T22:43:20.126Z,7.93
2018-11-25T22:45:48.938Z,8.80
2018-11-25T22:48:17.782Z,8.37
2018-11-25T22:50:46.600Z,8.93
2018-11-25T22:53:15.453Z,8.67
2018-11-25T22:55:44.257Z,9.07
2018-11-25T22:58:13.089Z,10.00
2018-11-25T23:00:41.989Z,9.90
2018-11-25T23:03:10.837Z,10.90
2018-11-25T23:05:50.711Z,9.40
2018-11-25T23:08:19.614Z,10.03
2018-11-25T23:10:48.430Z,8.80
2018-11-25T23:13:17.265Z,9.33
2018-11-25T23:15:46.093Z,8.60
2018-11-25T23:18:14.933Z,9.97
2018-11-25T23:20:43.760Z,11.27
2018-11-25T23:23:12.602Z,9.30
2018-11-25T23:25:41.427Z,9.13
2018-11-25T23:28:10.287Z,8.67
2018-11-25T23:30:39.128Z,10.13
2018-11-25T23:33:07.981Z,10.10
2018-11-25T23:35:36.792Z,8.43
2018-11-25T23:38:06.023Z,9.13
2018-11-25T23:40:34.838Z,10.93
2018-11-25T23:43:03.686Z,9.83
2018-11-25T23:45:32.497Z,9.80
2018-11-25T23:48:01.373Z,10.23
2018-11-25T23:50:30.182Z,10.07
2018-11-25T23:52:59.033Z,11.00
2018-11-25T23:55:27.925Z,9.33
2018-11-25T23:57:56.789Z,9.90
